createdAt,value
2019-01-24T08:50:17.741Z,11.13
2019-01-24T08:55:28.110Z,12.70
2019-01-24T09:00:32.946Z,10.83
2019-01-24T09:05:37.748Z,11.03
2019-01-24T09:10:42.627Z,12.17
2019-01-24T09:15:47.471Z,12.50
2019-01-24T09:20:52.254Z,12.40
2019-01-24T09:25:57.042Z,11.30
2019-01-24T09:31:01.836Z,11.97
2019-01-24T09:36:06.611Z,12.10
2019-01-24T09:41:11.320Z,11.93
2019-01-24T09:46:16.053Z,12.83
2019-01-24T09:51:20.887Z,12.03
2019-01-24T09:56:25.662Z,11.37
2019-01-24T10:01:30.361Z,12.47
2019-01-24T10:06:36.312Z,12.27
2019-01-24T10:11:41.322Z,11.97
2019-01-24T10:16:47.066Z,12.70
2019-01-24T10:21:51.780Z,12.60
2019-01-24T10:26:56.599Z,11.53
2019-01-24T10:32:01.314Z,11.80
2019-01-24T10:37:07.114Z,11.33
2019-01-24T10:42:11.842Z,12.17
2019-01-24T10:47:16.631Z,10.87
2019-01-24T10:52:21.349Z,11.30
2019-01-24T10:57:26.058Z,11.23
2019-01-24T11:02:30.803Z,12.23
2019-01-24T11:07:35.509Z,11.23
2019-01-24T11:12:40.289Z,12.87
2019-01-24T11:17:44.984Z,12.53
2019-01-24T11:22:50.270Z,12.23
2019-01-24T11:27:55.059Z,11.83
2019-01-24T11:33:00.857Z,12.13
2019-01-24T11:38:07.161Z,12.17
2019-01-24T11:43:11.955Z,12.57
2019-01-24T11:48:16.673Z,12.40
2019-01-24T11:53:21.446Z,11.50
2019-01-24T11:58:26.243Z,11.57
2019-01-24T12:03:31.061Z,11.48
2019-01-24T12:08:35.823Z,11.70
2019-01-24T12:13:40.540Z,13.10
2019-01-24T12:18:45.284Z,12.63
2019-01-24T12:23:50.013Z,11.67
2019-01-24T12:28:54.730Z,12.43
2019-01-24T12:33:59.444Z,12.67
2019-01-24T12:39:06.669Z,11.43
2019-01-24T12:44:11.412Z,12.63
2019-01-24T12:49:16.127Z,12.88
2019-01-24T12:54:21.827Z,12.40
2019-01-24T12:59:26.781Z,12.47
2019-01-24T13:04:31.587Z,11.70
2019-01-24T13:09:36.301Z,11.47
2019-01-24T13:14:41.050Z,11.88
2019-01-24T13:19:45.875Z,11.87
2019-01-24T13:24:50.612Z,12.07
2019-01-24T13:29:55.437Z,11.77
2019-01-24T13:35:00.363Z,12.03
2019-01-24T13:40:07.596Z,12.80
2019-01-24T13:45:14.261Z,12.13
2019-01-24T13:50:20.154Z,12.03
2019-01-24T13:55:24.965Z,12.07
2019-01-24T14:00:32.339Z,10.98
2019-01-24T14:05:37.148Z,10.82
2019-01-24T14:10:41.947Z,13.00
2019-01-24T14:15:46.741Z,10.07
2019-01-24T14:20:51.697Z,10.77
2019-01-24T14:25:56.627Z,10.67
2019-01-24T14:31:01.462Z,10.50
2019-01-24T14:36:06.981Z,11.43
2019-01-24T14:41:11.984Z,11.13
2019-01-24T14:46:16.786Z,10.50
2019-01-24T14:51:21.989Z,11.13
2019-01-24T14:56:26.867Z,10.43
2019-01-24T15:01:31.668Z,11.27
2019-01-24T15:06:36.397Z,11.70
2019-01-24T15:11:41.737Z,10.70
2019-01-24T15:16:46.719Z,11.90
2019-01-24T15:21:51.827Z,10.67
2019-01-24T15:26:57.184Z,10.57
2019-01-24T15:32:02.287Z,9.50
2019-01-24T15:37:07.180Z,11.03
2019-01-24T15:42:12.447Z,10.50
2019-01-24T15:47:19.930Z,10.90
2019-01-24T15:52:26.116Z,10.57
2019-01-24T15:57:31.552Z,9.68
2019-01-24T16:02:36.821Z,11.10
2019-01-24T16:07:42.350Z,11.80
2019-01-24T16:12:47.888Z,10.87
2019-01-24T16:17:53.527Z,10.37
2019-01-24T16:22:59.148Z,10.30
2019-01-24T16:28:04.582Z,11.35
2019-01-24T16:33:10.853Z,12.53
2019-01-24T16:38:16.535Z,10.77
2019-01-24T16:43:23.346Z,10.77
2019-01-24T16:48:29.591Z,12.47
2019-01-24T16:53:34.999Z,11.43
2019-01-24T16:58:40.730Z,11.33
2019-01-24T17:03:46.113Z,10.93
2019-01-24T17:08:52.608Z,9.50
2019-01-24T17:13:57.946Z,11.27
2019-01-24T17:19:03.465Z,11.00
2019-01-24T17:24:08.998Z,10.73
2019-01-24T17:29:14.383Z,10.63
2019-01-24T17:34:20.266Z,13.20
2019-01-24T17:39:26.136Z,11.80
2019-01-24T17:44:31.914Z,11.33
2019-01-24T17:49:37.357Z,10.67
2019-01-24T17:54:43.143Z,10.23
2019-01-24T17:59:49.936Z,10.23
2019-01-24T18:04:55.242Z,11.13
2019-01-24T18:10:13.898Z,10.27
2019-01-24T18:15:26.979Z,11.43
2019-01-24T18:20:34.399Z,9.50
2019-01-24T18:25:43.102Z,10.27
2019-01-24T18:30:49.658Z,10.30
2019-01-24T18:35:59.732Z,11.93
2019-01-24T18:41:08.679Z,10.60
2019-01-24T18:46:13.750Z,12.40
2019-01-24T18:51:20.165Z,11.60
2019-01-24T18:56:26.194Z,10.82
2019-01-24T19:01:33.173Z,11.60
2019-01-24T19:06:39.964Z,11.93
2019-01-24T19:11:46.642Z,12.13
2019-01-24T19:16:53.466Z,11.53
2019-01-24T19:22:00.545Z,11.07
2019-01-24T19:27:07.843Z,12.17
2019-01-24T19:32:14.122Z,15.43
2019-01-24T19:37:20.378Z,14.80
2019-01-24T19:42:27.101Z,14.00
2019-01-24T19:47:34.095Z,12.30
2019-01-24T19:52:41.000Z,12.40
2019-01-24T19:57:47.781Z,11.83
2019-01-24T20:02:54.896Z,12.63
2019-01-24T20:08:01.282Z,11.87
2019-01-24T20:13:08.286Z,11.75
2019-01-24T20:18:14.314Z,13.20
2019-01-24T20:23:21.006Z,13.37
2019-01-24T20:28:27.700Z,14.20
2019-01-24T20:33:33.702Z,12.80
2019-01-24T20:38:39.334Z,13.67
2019-01-24T20:43:45.843Z,14.43
2019-01-24T20:48:52.243Z,13.60
2019-01-24T20:53:58.530Z,14.33
2019-01-24T20:59:04.099Z,13.97
2019-01-24T21:04:09.944Z,13.93
2019-01-24T21:09:15.505Z,15.50
2019-01-24T21:14:21.376Z,14.50
2019-01-24T21:19:27.007Z,14.37
2019-01-24T21:24:31.858Z,15.10
2019-01-24T21:29:37.151Z,13.33
2019-01-24T21:34:42.453Z,14.87
2019-01-24T21:39:47.530Z,13.83
2019-01-24T21:44:52.885Z,14.40
2019-01-24T21:49:58.176Z,14.97
2019-01-24T21:55:03.347Z,15.37
2019-01-24T22:00:09.787Z,14.27
2019-01-24T22:05:14.666Z,14.03
2019-01-24T22:10:25.273Z,14.50
2019-01-24T22:15:30.471Z,14.77
2019-01-24T22:20:35.243Z,14.83
2019-01-24T22:25:39.953Z,15.27
2019-01-24T22:30:51.469Z,14.23
2019-01-24T22:35:56.161Z,14.20
2019-01-24T22:41:00.871Z,15.58
2019-01-24T22:46:06.252Z,14.97
2019-01-24T22:51:11.048Z,14.75
2019-01-24T22:56:15.759Z,15.87
2019-01-24T23:01:46.725Z,14.43
2019-01-24T23:06:51.580Z,14.60
2019-01-24T23:11:57.245Z,15.10
2019-01-24T23:17:03.239Z,15.43
2019-01-24T23:22:08.026Z,12.57
2019-01-24T23:27:12.745Z,14.37
2019-01-24T23:32:17.521Z,12.80
2019-01-24T23:37:22.294Z,14.70
2019-01-24T23:42:27.944Z,12.93
2019-01-24T23:47:32.733Z,13.87
2019-01-24T23:52:37.415Z,14.17
2019-01-24T23:57:42.125Z,12.63
